Time;durP1;ratioP1;P1;durP2;ratioP2;P2;SDS_P1;SDS_P2;PMS_P1;PMS_P2;Temp;Humidity;BMP_temperature;BMP_pressure;BME280_temperature;BME280_humidity;BME280_pressure;Samples;Min_cycle;Max_cycle;Signal;HPM_P1;HPM_P2
2021/08/25 00:00:38;;;;;;;16.67;14.77;;;10.80;99.90;;;9.66;100.00;98722.41;5101291;28;20774;-78
2021/08/25 00:03:26;;;;;;;16.40;14.93;;;10.70;99.90;;;9.47;100.00;98689.63;5116688;27;20438;-78
2021/08/25 00:06:13;;;;;;;17.53;15.30;;;10.70;99.90;;;9.55;100.00;98719.19;5104987;27;20961;-78
2021/08/25 00:09:01;;;;;;;20.77;17.03;;;10.70;99.90;;;9.42;100.00;98705.56;5112983;28;20435;-79
2021/08/25 00:11:48;;;;;;;18.87;17.07;;;10.60;99.90;;;9.43;100.00;98709.91;5112954;28;20817;-78
2021/08/25 00:14:37;;;;;;;18.83;16.83;;;10.60;99.90;;;9.59;100.00;98717.75;5109645;27;20518;-78
2021/08/25 00:17:25;;;;;;;19.57;17.30;;;10.70;99.90;;;9.61;100.00;98717.59;5109906;27;20465;-78
2021/08/25 00:20:13;;;;;;;17.97;16.30;;;10.70;99.90;;;9.72;100.00;98713.53;5109180;27;20453;-78
2021/08/25 00:23:00;;;;;;;16.97;15.37;;;10.80;99.90;;;9.66;100.00;98698.94;5106201;27;21097;-78
2021/08/25 00:25:48;;;;;;;18.40;16.53;;;10.80;99.90;;;9.62;100.00;98705.75;5118127;27;20435;-79
2021/08/25 00:28:36;;;;;;;19.37;17.53;;;10.80;99.90;;;9.40;100.00;98676.09;5106092;27;20903;-78
2021/08/25 00:31:23;;;;;;;18.37;16.57;;;10.70;99.90;;;9.31;100.00;98671.84;5115044;28;20416;-78
2021/08/25 00:34:12;;;;;;;17.77;15.90;;;10.70;99.90;;;9.47;100.00;98689.63;5122658;27;20452;-78
2021/08/25 00:36:59;;;;;;;18.60;16.70;;;10.60;99.90;;;9.50;100.00;98691.97;5126372;27;20497;-78
2021/08/25 00:39:47;;;;;;;19.30;17.40;;;10.60;99.90;;;9.48;100.00;98702.09;5123682;28;20516;-79
2021/08/25 00:42:34;;;;;;;18.63;16.73;;;10.60;99.90;;;9.46;100.00;98699.59;5132619;28;20495;-79
2021/08/25 00:45:22;;;;;;;19.70;16.23;;;10.60;99.90;;;9.40;100.00;98692.28;5115217;27;20443;-78
2021/08/25 00:48:12;;;;;;;19.93;17.80;;;10.60;99.90;;;9.54;100.00;98687.00;5114826;27;20439;-78
2021/08/25 00:51:01;;;;;;;21.27;18.20;;;10.60;99.90;;;9.47;100.00;98671.59;5117912;27;20455;-78
2021/08/25 00:53:48;;;;;;;19.57;17.57;;;10.70;99.90;;;9.40;100.00;98672.53;5097952;28;20544;-78
2021/08/25 00:56:35;;;;;;;17.83;15.93;;;10.60;99.90;;;9.39;100.00;98660.09;5097683;28;20497;-78
2021/08/25 00:59:23;;;;;;;20.30;18.30;;;10.60;99.90;;;9.40;100.00;98672.53;5114035;28;20524;-78
2021/08/25 01:02:18;;;;;;;20.33;18.33;;;10.60;99.90;;;9.33;100.00;98662.53;5096933;28;20564;-78
2021/08/25 01:05:10;;;;;;;18.60;16.70;;;10.50;99.90;;;9.29;100.00;98676.59;5104192;28;21025;-78
2021/08/25 01:08:03;;;;;;;18.80;16.90;;;10.40;99.90;;;9.40;100.00;98680.63;5104000;27;20439;-78
2021/08/25 01:10:50;;;;;;;18.93;17.03;;;10.50;99.90;;;9.29;100.00;98677.41;5101971;27;20446;-78
2021/08/25 01:13:39;;;;;;;19.23;17.37;;;10.40;99.90;;;9.30;100.00;98671.00;5121033;27;20434;-78
2021/08/25 01:16:27;;;;;;;19.40;17.50;;;10.50;99.90;;;9.20;100.00;98652.44;5114792;27;20495;-78
2021/08/25 01:19:16;;;;;;;19.30;17.53;;;10.40;99.90;;;9.26;100.00;98666.19;5122646;27;20438;-78
2021/08/25 01:22:04;;;;;;;19.27;17.30;;;10.40;99.90;;;9.25;100.00;98665.34;5110036;27;20439;-78
2021/08/25 01:24:53;;;;;;;21.90;18.40;;;10.40;99.90;;;9.24;100.00;98665.53;5110507;28;20906;-78
2021/08/25 01:27:46;;;;;;;19.53;17.53;;;10.40;99.90;;;9.27;100.00;98679.47;5112139;27;20455;-78
2021/08/25 01:30:38;;;;;;;18.73;16.70;;;10.40;99.90;;;9.16;100.00;98667.31;5107488;27;21007;-78
2021/08/25 01:33:32;;;;;;;22.50;17.43;;;10.30;99.90;;;9.09;100.00;98657.50;5112677;27;20443;-78
2021/08/25 01:36:20;;;;;;;19.90;16.90;;;10.30;99.90;;;9.09;100.00;98663.69;5112622;27;20443;-78
2021/08/25 01:39:07;;;;;;;18.63;16.73;;;10.30;99.90;;;8.99;100.00;98665.88;5111219;27;20481;-78
2021/08/25 01:41:55;;;;;;;18.37;16.57;;;10.10;99.90;;;8.98;100.00;98662.34;5117459;27;20503;-78
2021/08/25 01:44:42;;;;;;;20.20;18.30;;;10.10;99.90;;;9.00;100.00;98662.97;5107136;28;20933;-78
2021/08/25 01:47:31;;;;;;;17.70;15.80;;;10.10;99.90;;;8.92;100.00;98660.41;5112162;27;20560;-79
2021/08/25 01:50:18;;;;;;;17.67;15.80;;;10.00;99.90;;;8.86;100.00;98659.31;5110840;27;20926;-78
2021/08/25 01:53:05;;;;;;;17.47;15.70;;;10.10;99.90;;;8.79;100.00;98656.53;5111723;27;20426;-78
2021/08/25 01:55:53;;;;;;;18.63;16.63;;;10.00;99.90;;;8.76;100.00;98656.91;5111451;27;20436;-78
2021/08/25 01:58:41;;;;;;;19.37;17.47;;;10.00;99.90;;;8.69;100.00;98655.97;5108696;27;20492;-78
2021/08/25 02:01:28;;;;;;;19.97;17.90;;;9.90;99.90;;;8.63;100.00;98651.34;5104771;28;20518;-78
2021/08/25 02:04:17;;;;;;;20.00;17.90;;;9.80;99.90;;;8.71;100.00;98645.84;5105255;28;20597;-78
2021/08/25 02:07:05;;;;;;;19.27;17.40;;;9.90;99.90;;;8.67;100.00;98651.81;5091844;28;20597;-78
2021/08/25 02:09:53;;;;;;;18.97;17.07;;;9.80;99.90;;;8.58;100.00;98646.50;5110167;28;20500;-78
2021/08/25 02:12:40;;;;;;;20.57;18.37;;;9.80;99.90;;;8.59;100.00;98645.50;5110667;27;20433;-79
2021/08/25 02:15:27;;;;;;;20.63;18.40;;;9.70;99.90;;;8.61;100.00;98642.63;5113050;27;20437;-78
2021/08/25 02:18:15;;;;;;;21.07;18.83;;;9.80;99.90;;;8.48;100.00;98636.00;5113432;27;20498;-78
2021/08/25 02:21:04;;;;;;;20.53;18.43;;;9.70;99.90;;;8.55;100.00;98643.34;5113871;27;20492;-78
2021/08/25 02:23:51;;;;;;;20.43;18.43;;;9.70;99.90;;;8.55;100.00;98643.34;5115118;27;20428;-78
2021/08/25 02:26:38;;;;;;;21.60;17.97;;;9.70;99.90;;;8.54;100.00;98641.69;5119252;27;20484;-78
2021/08/25 02:29:27;;;;;;;21.23;19.03;;;9.70;99.90;;;8.44;100.00;98634.72;5104047;27;20459;-78
2021/08/25 02:32:14;;;;;;;18.70;16.80;;;9.70;99.90;;;8.42;100.00;98628.69;5111820;28;20447;-78
2021/08/25 02:35:02;;;;;;;21.73;19.53;;;9.70;99.90;;;8.44;100.00;98634.72;5115490;28;20638;-78
2021/08/25 02:37:51;;;;;;;21.93;19.50;;;9.70;99.90;;;8.38;100.00;98616.59;5119214;27;20469;-78
2021/08/25 02:40:38;;;;;;;20.07;17.93;;;9.70;99.90;;;8.41;100.00;98626.16;5118623;28;20435;-78
2021/08/25 02:43:26;;;;;;;19.43;17.43;;;9.60;99.90;;;8.26;100.00;98618.06;5112788;28;20969;-78
2021/08/25 02:46:14;;;;;;;20.07;17.87;;;9.50;99.90;;;8.27;100.00;98622.47;5119015;27;20433;-78
2021/08/25 02:49:03;;;;;;;20.40;18.40;;;9.50;99.90;;;8.23;100.00;98624.69;5119481;27;20435;-78
2021/08/25 02:51:50;;;;;;;21.93;18.40;;;9.40;99.90;;;8.25;100.00;98619.09;5113960;27;20592;-79
2021/08/25 02:54:39;;;;;;;21.00;18.40;;;9.40;99.90;;;8.23;100.00;98625.50;5111696;27;20444;-78
2021/08/25 02:57:28;;;;;;;21.17;18.97;;;9.40;99.90;;;8.18;100.00;98603.69;5112228;28;20987;-78
2021/08/25 03:00:16;;;;;;;20.80;18.40;;;9.40;99.90;;;8.20;100.00;98601.66;5108945;28;20430;-78
2021/08/25 03:03:03;;;;;;;21.87;18.47;;;9.40;99.90;;;8.15;100.00;98597.84;5111953;28;20457;-78
2021/08/25 03:05:51;;;;;;;24.10;20.63;;;9.40;99.90;;;8.09;100.00;98594.03;5112690;28;20516;-78
2021/08/25 03:08:39;;;;;;;20.10;18.00;;;9.30;99.90;;;8.10;100.00;98598.41;5106931;28;20500;-78
2021/08/25 03:11:27;;;;;;;23.00;20.60;;;9.30;99.90;;;8.14;100.00;98593.47;5099457;28;20419;-78
2021/08/25 03:14:14;;;;;;;23.17;20.77;;;9.30;99.90;;;8.23;100.00;98600.47;5108154;28;20447;-78
2021/08/25 03:17:02;;;;;;;22.80;18.73;;;9.40;99.90;;;8.17;100.00;98602.03;5113487;28;20523;-78
2021/08/25 03:19:49;;;;;;;20.93;18.73;;;9.30;99.90;;;8.16;100.00;98592.28;5110522;28;20953;-78
2021/08/25 03:22:37;;;;;;;20.17;18.10;;;9.40;99.90;;;8.04;100.00;98591.06;5112222;28;20457;-78
2021/08/25 03:25:25;;;;;;;21.13;18.23;;;9.30;99.90;;;8.08;100.00;98584.28;5117385;28;20504;-78
2021/08/25 03:28:13;;;;;;;21.50;19.30;;;9.30;99.90;;;8.05;100.00;98573.91;5115415;28;20544;-78
2021/08/25 03:31:01;;;;;;;20.00;17.90;;;9.30;99.90;;;8.08;100.00;98566.31;5116574;28;20463;-78
2021/08/25 03:33:48;;;;;;;21.23;18.97;;;9.30;99.90;;;8.11;100.00;98575.84;5107307;28;20574;-77
2021/08/25 03:36:36;;;;;;;20.67;18.50;;;9.30;99.90;;;8.21;100.00;98573.72;5113834;28;20542;-78
2021/08/25 03:39:23;;;;;;;20.00;18.10;;;9.40;99.90;;;8.15;100.00;98579.00;5104683;28;20480;-78
2021/08/25 03:42:10;;;;;;;20.20;18.10;;;9.30;99.90;;;8.07;100.00;98579.94;5112049;28;20980;-78
2021/08/25 03:44:59;;;;;;;22.03;19.70;;;9.30;99.90;;;8.02;100.00;98572.41;5110936;27;20419;-78
2021/08/25 03:47:46;;;;;;;22.37;20.07;;;9.30;99.90;;;7.99;100.00;98575.47;5109546;28;20862;-78
2021/08/25 03:50:34;;;;;;;21.33;19.13;;;9.20;99.90;;;8.05;100.00;98580.13;5108336;28;20430;-78
2021/08/25 03:53:21;;;;;;;21.83;18.47;;;9.20;99.90;;;8.13;100.00;98578.34;5112870;28;20515;-78
2021/08/25 03:56:08;;;;;;;22.20;19.00;;;9.30;99.90;;;8.05;100.00;98577.44;5100507;28;20424;-78
2021/08/25 03:58:56;;;;;;;20.43;18.33;;;9.20;99.90;;;7.94;100.00;98578.72;5095338;28;20513;-78
2021/08/25 04:01:44;;;;;;;21.03;18.90;;;9.20;99.90;;;8.11;100.00;98575.03;5108848;28;20534;-79
2021/08/25 04:04:34;;;;;;;18.67;16.97;;;9.20;99.90;;;7.98;100.00;98578.38;5092172;28;20564;-78
2021/08/25 04:07:21;;;;;;;21.43;18.20;;;9.20;99.90;;;7.83;100.00;98576.50;5102598;28;20456;-79
2021/08/25 04:10:10;;;;;;;21.00;18.20;;;9.10;99.90;;;7.77;100.00;98572.69;5112051;28;21031;-78
2021/08/25 04:12:58;;;;;;;20.50;18.17;;;9.00;99.90;;;7.72;100.00;98572.38;5110666;27;21216;-77
2021/08/25 04:15:46;;;;;;;21.67;18.83;;;9.00;99.90;;;7.67;100.00;98573.97;5115194;27;20526;-78
2021/08/25 04:18:34;;;;;;;20.37;18.27;;;8.90;99.90;;;7.67;100.00;98576.66;5119930;27;20449;-77
2021/08/25 04:21:22;;;;;;;20.73;18.53;;;8.90;99.90;;;7.76;100.00;98576.41;5110328;27;20436;-77
2021/08/25 04:24:09;;;;;;;21.00;18.30;;;8.90;99.90;;;7.71;100.00;98561.81;5109943;27;20441;-78
2021/08/25 04:26:56;;;;;;;24.10;20.47;;;9.00;99.90;;;7.75;100.00;98565.81;5114204;27;20508;-77
2021/08/25 04:29:44;;;;;;;23.93;19.77;;;8.90;99.90;;;7.82;100.00;98569.47;5118747;27;20557;-78
2021/08/25 04:32:32;;;;;;;20.33;18.20;;;9.00;99.90;;;7.78;100.00;98566.28;5116776;27;20438;-77
2021/08/25 04:35:21;;;;;;;24.03;18.90;;;9.00;99.90;;;7.75;100.00;98560.44;5106330;27;20435;-77
2021/08/25 04:38:08;;;;;;;21.30;19.10;;;9.00;99.90;;;7.73;100.00;98554.41;5109145;27;20896;-77
2021/08/25 04:40:58;;;;;;;23.10;20.40;;;9.00;99.90;;;7.82;100.00;98560.53;5095558;27;20505;-77
2021/08/25 04:43:45;;;;;;;24.57;20.80;;;9.00;99.90;;;8.10;100.00;98565.28;5100824;28;20986;-77
2021/08/25 04:46:33;;;;;;;30.00;24.03;;;9.40;99.90;;;8.44;100.00;98556.63;5110258;27;20889;-77
2021/08/25 04:49:20;;;;;;;26.97;23.70;;;9.80;99.90;;;8.62;100.00;98548.13;5114350;27;20430;-77
2021/08/25 04:52:10;;;;;;;21.60;19.30;;;10.20;99.90;;;9.12;100.00;98568.16;5107869;28;20530;-77
2021/08/25 04:54:57;;;;;;;18.67;16.80;;;10.70;99.90;;;9.35;100.00;98565.25;5119667;27;20586;-78
2021/08/25 04:57:45;;;;;;;19.27;17.47;;;11.00;99.90;;;9.51;100.00;98569.53;5111366;27;20531;-78
2021/08/25 05:00:33;;;;;;;18.00;16.27;;;11.20;99.90;;;9.85;100.00;98567.06;5099925;27;20499;-78
2021/08/25 05:03:20;;;;;;;16.40;14.90;;;11.50;99.90;;;10.07;100.00;98560.59;5112920;27;20476;-78
2021/08/25 05:06:08;;;;;;;16.37;14.80;;;11.90;96.30;;;10.13;100.00;98558.97;5118294;27;21265;-78
2021/08/25 05:08:57;;;;;;;15.50;14.20;;;12.00;94.80;;;10.36;100.00;98563.22;5104369;27;20463;-78
2021/08/25 05:11:44;;;;;;;15.43;13.73;;;12.30;95.30;;;10.54;100.00;98564.56;5113832;27;20445;-79
2021/08/25 05:14:31;;;;;;;15.57;13.93;;;12.50;93.70;;;10.86;98.44;98562.19;5111640;27;20513;-79
2021/08/25 05:17:20;;;;;;;13.57;12.47;;;12.80;92.30;;;10.98;98.24;98554.31;5106305;27;20444;-78
2021/08/25 05:20:09;;;;;;;15.70;14.30;;;13.00;91.50;;;11.00;98.21;98563.88;5105146;28;20476;-78
2021/08/25 05:22:57;;;;;;;14.10;12.60;;;12.90;91.60;;;10.78;97.19;98528.06;5112770;27;20455;-79
2021/08/25 05:25:45;;;;;;;14.70;13.23;;;12.70;91.20;;;10.84;97.10;98558.84;5113804;28;20430;-77
2021/08/25 05:28:33;;;;;;;14.30;13.00;;;12.70;91.40;;;11.05;97.59;98555.13;5095296;28;20452;-77
2021/08/25 05:31:20;;;;;;;13.73;12.40;;;12.90;91.70;;;11.23;93.63;98524.81;5107543;28;20435;-77
2021/08/25 05:34:08;;;;;;;13.87;12.47;;;13.30;89.40;;;11.41;94.68;98563.94;5117932;27;21058;-78
2021/08/25 05:36:55;;;;;;;13.07;11.87;;;13.30;88.90;;;11.15;94.02;98554.78;5111750;28;20411;-78
2021/08/25 05:39:44;;;;;;;13.10;11.83;;;13.00;89.70;;;11.02;95.19;98545.59;5111249;27;20514;-78
2021/08/25 05:42:33;;;;;;;14.20;12.90;;;12.80;90.50;;;11.07;95.25;98539.56;5105090;27;20483;-78
2021/08/25 05:45:21;;;;;;;16.50;13.70;;;12.90;90.40;;;11.10;94.48;98524.78;5106612;27;20433;-78
2021/08/25 05:48:08;;;;;;;15.57;14.07;;;13.00;90.30;;;11.01;94.02;98554.75;5091436;28;20826;-78
2021/08/25 05:50:56;;;;;;;15.30;13.80;;;12.70;89.90;;;10.66;94.81;98557.53;5111437;27;20476;-79
2021/08/25 05:53:43;;;;;;;14.73;13.23;;;12.10;91.20;;;10.48;96.41;98568.94;5117182;27;20431;-78
2021/08/25 05:56:30;;;;;;;15.17;13.77;;;11.80;92.80;;;10.39;96.59;98556.59;5117213;27;20487;-78
2021/08/25 05:59:19;;;;;;;15.30;13.83;;;11.70;93.90;;;10.31;97.08;98561.13;5109086;27;20438;-79
2021/08/25 06:02:07;;;;;;;15.23;13.83;;;11.60;94.80;;;10.36;97.48;98555.09;5114152;28;20447;-79
2021/08/25 06:04:54;;;;;;;14.87;13.47;;;11.60;95.40;;;10.40;98.29;98553.69;5112955;27;20431;-79
2021/08/25 06:07:42;;;;;;;15.40;12.77;;;11.70;95.80;;;10.41;97.86;98555.38;5117509;27;20531;-79
2021/08/25 06:10:29;;;;;;;15.73;14.13;;;11.70;95.60;;;10.46;97.21;98535.84;5111916;27;20443;-78
2021/08/25 06:13:17;;;;;;;14.47;13.10;;;11.80;95.30;;;10.67;96.90;98552.97;5105875;27;20438;-79
2021/08/25 06:16:06;;;;;;;15.17;13.67;;;11.90;95.50;;;10.67;96.23;98543.00;5113678;27;20592;-78
2021/08/25 06:18:53;;;;;;;14.27;12.90;;;12.00;94.90;;;10.85;96.00;98558.63;5109114;27;21190;-80
2021/08/25 06:21:45;;;;;;;14.37;13.07;;;12.00;94.50;;;10.90;96.48;98552.63;5116032;27;20425;-79
2021/08/25 06:24:32;;;;;;;13.73;12.43;;;12.10;94.60;;;10.93;96.75;98532.47;5106583;27;20548;-77
2021/08/25 06:27:19;;;;;;;13.40;12.20;;;12.30;94.70;;;11.14;95.31;98553.91;5112733;27;20431;-78
2021/08/25 06:30:09;;;;;;;12.70;11.50;;;12.40;93.50;;;11.24;94.91;98536.47;5113490;28;20497;-78
2021/08/25 06:32:58;;;;;;;13.83;12.43;;;12.50;93.30;;;11.42;94.64;98549.34;5115917;27;20498;-77
2021/08/25 06:35:46;;;;;;;12.77;11.63;;;12.60;93.20;;;11.45;93.72;98549.78;5098896;27;20992;-79
2021/08/25 06:38:33;;;;;;;12.77;11.67;;;12.70;92.60;;;11.59;93.32;98545.19;5114168;28;20802;-78
2021/08/25 06:41:21;;;;;;;13.30;11.97;;;12.80;92.00;;;11.66;93.09;98552.47;5107512;28;20455;-78
2021/08/25 06:44:09;;;;;;;12.10;10.90;;;12.80;91.80;;;11.80;92.43;98545.16;5117136;28;20434;-78
2021/08/25 06:46:56;;;;;;;14.17;12.87;;;13.00;91.60;;;11.86;91.70;98545.16;5127474;27;20423;-78
2021/08/25 06:49:45;;;;;;;13.80;12.30;;;13.10;90.90;;;11.90;91.66;98551.84;5113629;27;20459;-79
2021/08/25 06:52:32;;;;;;;13.40;12.00;;;13.10;90.90;;;11.98;92.30;98553.50;5107245;27;20446;-79
2021/08/25 06:55:21;;;;;;;12.70;11.50;;;13.20;91.00;;;12.15;90.12;98547.66;5116466;27;20426;-78
2021/08/25 06:58:10;;;;;;;12.03;10.83;;;13.30;90.10;;;12.30;89.12;98550.94;5112482;28;20899;-78
2021/08/25 07:01:01;;;;;;;13.43;12.17;;;13.50;89.20;;;12.27;90.81;98555.94;5119279;28;20996;-79
2021/08/25 07:03:48;;;;;;;12.53;11.33;;;13.50;90.20;;;12.38;89.94;98552.56;5110730;28;21112;-78
2021/08/25 07:06:37;;;;;;;13.13;11.93;;;13.60;90.00;;;12.47;89.38;98545.84;5110521;28;20435;-78
2021/08/25 07:09:25;;;;;;;12.10;10.90;;;13.70;89.30;;;12.61;89.70;98540.38;5107880;28;20460;-78
2021/08/25 07:12:12;;;;;;;11.10;10.00;;;13.80;90.00;;;12.93;87.75;98551.25;5111402;28;20427;-78
2021/08/25 07:15:00;;;;;;;12.00;10.53;;;14.00;87.80;;;12.94;87.96;98530.41;5096761;28;20427;-79
2021/08/25 07:17:47;;;;;;;9.80;8.80;;;14.20;87.70;;;13.16;86.69;98547.16;5099211;28;20438;-79
2021/08/25 07:20:34;;;;;;;10.90;9.90;;;14.30;86.40;;;13.34;85.79;98553.69;5104353;28;20427;-79
2021/08/25 07:23:23;;;;;;;12.17;10.97;;;14.40;85.90;;;13.42;86.91;98537.97;5126498;28;20439;-78
2021/08/25 07:26:10;;;;;;;10.30;9.30;;;14.60;87.20;;;13.63;83.82;98524.28;5111808;28;20510;-78
2021/08/25 07:28:57;;;;;;;10.40;9.30;;;14.80;84.30;;;13.68;83.88;98535.28;5110952;28;21114;-78
2021/08/25 07:31:47;;;;;;;8.80;7.90;;;14.90;84.00;;;13.79;83.39;98525.56;5082422;28;20435;-78
2021/08/25 07:34:35;;;;;;;10.90;10.07;;;15.00;83.50;;;13.71;84.32;98529.41;5111937;28;20523;-78
2021/08/25 07:37:22;;;;;;;9.50;6.90;;;14.90;84.00;;;13.88;81.46;98533.22;5112287;28;20444;-79
2021/08/25 07:40:12;;;;;;;9.10;6.67;;;15.00;81.80;;;14.16;80.34;98531.84;5115676;28;20427;-79
2021/08/25 07:43:00;;;;;;;9.37;8.57;;;15.20;80.80;;;14.31;80.62;98530.66;5112890;28;20523;-78
2021/08/25 07:45:47;;;;;;;8.63;7.93;;;15.40;81.00;;;14.35;80.88;98526.44;5116730;28;20494;-78
2021/08/25 07:48:35;;;;;;;7.10;6.50;;;15.50;81.00;;;14.41;78.64;98525.50;5108567;27;20448;-78
2021/08/25 07:51:22;;;;;;;7.73;6.77;;;15.50;78.80;;;14.58;79.15;98530.31;5111410;27;20458;-79
2021/08/25 07:54:10;;;;;;;8.00;5.20;;;15.70;79.30;;;14.59;77.14;98515.66;5108604;27;20438;-79
2021/08/25 07:56:58;;;;;;;6.57;5.57;;;15.70;76.70;;;14.73;75.96;98517.19;5108043;27;20493;-79
2021/08/25 07:59:46;;;;;;;5.13;4.63;;;15.80;75.90;;;14.91;74.52;98517.38;5115361;27;20459;-79
2021/08/25 08:02:35;;;;;;;5.57;5.07;;;16.00;74.60;;;15.06;74.14;98519.66;5110223;27;20431;-79
2021/08/25 08:05:23;;;;;;;5.63;5.07;;;16.10;73.90;;;15.28;74.17;98517.22;5105618;27;20529;-80
2021/08/25 08:08:10;;;;;;;6.17;4.60;;;16.30;73.70;;;15.53;73.48;98511.56;5117614;27;20497;-79
2021/08/25 08:10:58;;;;;;;7.70;4.47;;;16.50;73.10;;;15.73;72.67;98507.69;5119074;27;20531;-79
2021/08/25 08:13:46;;;;;;;4.67;4.20;;;16.70;72.60;;;15.88;68.69;98503.66;5130219;27;20442;-80
2021/08/25 08:16:35;;;;;;;4.10;3.60;;;16.90;69.20;;;15.74;66.36;98501.16;5137410;27;20431;-79
2021/08/25 08:19:29;;;;;;;6.10;4.27;;;16.90;66.50;;;15.77;67.81;98495.22;5130374;27;20447;-82
2021/08/25 08:22:16;;;;;;;5.20;3.67;;;16.90;67.40;;;15.91;64.79;98508.63;5136102;27;20435;-81
2021/08/25 08:25:05;;;;;;;4.90;3.90;;;17.00;65.00;;;16.06;65.36;98500.81;5131984;27;20426;-81
2021/08/25 08:27:52;;;;;;;3.97;3.50;;;17.00;65.00;;;16.31;64.77;98502.41;5124968;28;20429;-82
2021/08/25 08:30:41;;;;;;;5.67;4.60;;;17.20;65.10;;;16.14;62.18;98494.97;5128845;27;20474;-81
2021/08/25 08:33:30;;;;;;;7.57;4.80;;;17.30;62.30;;;16.25;63.68;98492.47;5133222;27;20525;-82
2021/08/25 08:36:17;;;;;;;9.30;4.50;;;17.20;63.10;;;16.27;61.56;98480.25;5115484;28;20435;-84
2021/08/25 08:39:06;;;;;;;10.00;4.30;;;17.30;61.60;;;16.44;60.09;98487.66;5136686;27;20450;-82
2021/08/25 08:41:53;;;;;;;7.00;4.30;;;17.40;60.70;;;16.43;59.77;98473.19;5109008;27;20426;-81
2021/08/25 08:44:44;;;;;;;11.90;5.20;;;17.50;60.30;;;16.48;58.96;98486.09;5123302;27;20541;-82
2021/08/25 08:47:33;;;;;;;6.40;5.20;;;17.60;59.30;;;16.58;58.28;98485.47;5127304;27;20423;-81
2021/08/25 08:50:21;;;;;;;6.43;4.27;;;17.60;58.90;;;16.73;58.18;98471.31;5121635;27;20469;-82
2021/08/25 08:53:11;;;;;;;6.43;5.03;;;17.70;59.30;;;17.04;55.83;98481.97;5118955;27;21014;-81
2021/08/25 08:55:59;;;;;;;8.03;5.00;;;17.90;57.60;;;17.05;55.38;98489.91;5120121;27;20530;-82
2021/08/25 08:58:48;;;;;;;7.33;4.37;;;18.00;57.00;;;16.76;56.85;98484.44;5121517;27;20434;-82
2021/08/25 09:01:36;;;;;;;10.10;4.53;;;17.90;57.40;;;16.75;55.11;98466.44;5117169;27;20458;-81
2021/08/25 09:04:35;;;;;;;7.50;4.87;;;17.80;56.40;;;16.87;52.45;98477.28;5124725;27;20467;-82
2021/08/25 09:07:26;;;;;;;8.20;5.23;;;17.90;55.10;;;17.02;53.99;98473.19;5123195;27;20544;-81
2021/08/25 09:10:14;;;;;;;6.03;4.40;;;18.00;55.80;;;17.18;53.91;98461.44;5107739;28;20486;-83
2021/08/25 09:13:05;;;;;;;6.03;4.70;;;18.20;56.10;;;17.47;53.56;98447.69;5103415;28;20488;-83
2021/08/25 09:15:53;;;;;;;5.20;4.30;;;18.40;56.30;;;17.61;52.67;98469.22;5120590;28;20439;-84
2021/08/25 09:18:40;;;;;;;5.60;4.73;;;18.60;55.40;;;17.42;53.46;98464.03;5129846;27;20450;-83
2021/08/25 09:21:36;;;;;;;4.93;4.43;;;18.50;55.60;;;17.65;53.97;98471.19;5125863;28;20437;-82
2021/08/25 09:24:25;;;;;;;5.30;4.07;;;18.60;56.30;;;17.62;53.29;98462.66;5123687;28;20492;-83
2021/08/25 09:27:14;;;;;;;8.67;4.60;;;18.60;55.70;;;17.49;53.40;98459.19;5115511;27;20492;-83
2021/08/25 09:30:04;;;;;;;5.10;4.33;;;18.60;55.40;;;17.66;52.33;98466.53;5122119;27;20481;-83
2021/08/25 09:32:52;;;;;;;6.03;4.33;;;18.60;54.90;;;17.76;53.17;98466.69;5094061;27;20439;-84
2021/08/25 09:35:52;;;;;;;7.13;4.03;;;18.70;55.30;;;17.69;52.10;98464.16;5116394;27;20436;-83
2021/08/25 09:38:54;;;;;;;5.20;4.43;;;18.70;54.70;;;17.80;53.15;98445.97;5102525;27;20466;-83
2021/08/25 09:41:56;;;;;;;5.13;4.30;;;18.80;55.10;;;17.84;52.80;98462.72;5113489;28;20418;-83
2021/08/25 09:44:45;;;;;;;5.20;4.40;;;18.80;55.40;;;18.02;51.51;98450.69;5135554;27;20449;-84
2021/08/25 09:47:50;;;;;;;5.03;4.50;;;19.00;54.90;;;18.22;52.17;98452.84;5137698;27;20435;-83
2021/08/25 09:50:38;;;;;;;9.97;4.80;;;19.20;55.20;;;18.53;50.42;98449.63;5119246;27;20740;-84
2021/08/25 09:53:25;;;;;;;9.50;4.67;;;19.40;54.50;;;18.78;51.83;98457.25;5113835;28;20589;-84
2021/08/25 09:56:35;;;;;;;5.53;4.50;;;19.60;55.30;;;18.95;50.00;98442.63;5101010;27;20522;-82
2021/08/25 09:59:23;;;;;;;6.70;4.30;;;19.90;54.60;;;18.66;51.08;98449.22;5083835;28;20449;-83
2021/08/25 10:02:12;;;;;;;7.40;4.57;;;19.70;54.50;;;18.38;50.58;98445.63;5117436;27;20435;-83
2021/08/25 10:05:00;;;;;;;6.93;4.27;;;19.40;54.00;;;18.50;49.74;98433.72;5127746;27;20510;-82
2021/08/25 10:07:48;;;;;;;5.30;4.03;;;19.40;53.60;;;18.38;49.92;98426.50;5125914;27;20503;-83
2021/08/25 10:10:38;;;;;;;5.50;4.33;;;19.40;53.50;;;18.34;49.41;98406.22;5099156;27;20462;-83
2021/08/25 10:13:30;;;;;;;4.77;3.53;;;19.40;53.40;;;18.64;49.45;98413.09;5121158;27;20809;-82
2021/08/25 10:16:40;;;;;;;10.40;4.40;;;19.50;53.40;;;18.71;49.59;98396.47;5116905;27;20502;-83
2021/08/25 10:19:36;;;;;;;6.03;3.53;;;19.70;53.50;;;18.97;49.15;98422.13;5119955;27;20441;-84
2021/08/25 10:22:26;;;;;;;4.53;3.70;;;19.90;53.60;;;18.80;48.71;98414.06;5112104;28;20585;-84
2021/08/25 10:25:15;;;;;;;5.57;3.80;;;19.80;52.90;;;18.76;48.53;98401.16;5113423;28;20453;-84
2021/08/25 10:28:05;;;;;;;3.53;2.93;;;19.70;53.00;;;18.92;48.78;98416.63;5113096;27;20442;-85
2021/08/25 10:30:57;;;;;;;4.93;4.23;;;19.80;53.00;;;18.92;46.70;98413.03;5112840;27;20514;-84
2021/08/25 10:34:12;;;;;;;4.90;3.90;;;19.80;52.20;;;19.00;47.30;98411.78;5113716;27;20530;-82
2021/08/25 10:37:30;;;;;;;5.43;3.90;;;19.90;52.10;;;18.87;45.32;98402.88;5110642;27;20436;-80
2021/08/25 10:40:33;;;;;;;4.63;3.70;;;19.90;50.90;;;18.96;45.46;98395.84;5118420;27;20934;-80
2021/08/25 10:43:40;;;;;;;5.50;3.83;;;19.90;50.80;;;19.06;46.05;98395.13;5110691;27;20498;-79
2021/08/25 10:46:48;;;;;;;5.00;3.93;;;20.00;51.30;;;19.13;45.01;98381.22;5102360;28;20466;-80
2021/08/25 10:49:38;;;;;;;5.40;4.10;;;20.10;50.70;;;19.17;45.22;98381.53;5124154;27;20471;-81
2021/08/25 10:52:29;;;;;;;5.67;3.97;;;20.10;50.60;;;19.23;45.68;98362.13;5129082;28;20471;-81
2021/08/25 10:55:16;;;;;;;6.63;4.07;;;20.20;51.20;;;19.52;44.26;98361.75;5109121;27;20452;-80
2021/08/25 10:58:04;;;;;;;5.83;4.30;;;20.40;50.20;;;19.75;43.54;98369.81;5128364;27;20466;-80
2021/08/25 11:00:51;;;;;;;6.00;4.50;;;20.60;49.80;;;19.36;44.35;98363.56;5087651;28;20446;-80
2021/08/25 11:03:40;;;;;;;4.63;4.13;;;20.40;50.00;;;19.46;45.09;98357.31;5118270;27;20482;-80
2021/08/25 11:06:42;;;;;;;4.50;4.10;;;20.40;50.70;;;19.53;45.83;98344.22;5119341;27;20431;-80
2021/08/25 11:09:32;;;;;;;5.07;4.33;;;20.50;51.20;;;19.47;43.70;98344.44;5101228;27;20525;-79
2021/08/25 11:12:25;;;;;;;4.70;4.20;;;20.50;49.60;;;19.45;44.24;98321.97;5114304;28;21059;-80
2021/08/25 11:15:12;;;;;;;4.00;3.50;;;20.50;50.20;;;19.42;44.10;98334.28;5110696;28;20446;-80
2021/08/25 11:17:59;;;;;;;5.47;4.00;;;20.30;50.00;;;19.40;43.87;98333.72;5110266;28;20477;-80
2021/08/25 11:21:06;;;;;;;3.83;3.30;;;20.30;49.70;;;19.29;44.27;98315.59;5111153;27;20443;-80
2021/08/25 11:23:53;;;;;;;4.43;4.00;;;20.30;49.80;;;19.51;45.12;98319.00;5103669;28;20527;-80
2021/08/25 11:26:41;;;;;;;5.27;4.17;;;20.40;50.60;;;19.62;44.41;98316.28;5118266;27;20947;-80
2021/08/25 11:29:29;;;;;;;4.20;3.80;;;20.50;50.30;;;19.64;44.51;98303.16;5116585;27;20513;-80
2021/08/25 11:32:17;;;;;;;7.93;4.13;;;20.60;50.40;;;19.89;44.80;98315.28;5111230;27;21251;-80
2021/08/25 11:35:06;;;;;;;6.77;4.33;;;20.70;50.60;;;19.83;44.21;98248.66;5119537;27;20430;-80
2021/08/25 11:37:59;;;;;;;5.07;3.70;;;21.00;50.50;;;20.51;43.42;98305.28;5123396;27;20419;-80
2021/08/25 11:40:50;;;;;;;5.73;3.93;;;21.30;50.30;;;20.55;43.64;98316.56;5124364;28;20506;-80
2021/08/25 11:43:48;;;;;;;4.00;3.60;;;21.40;50.20;;;20.46;43.29;98309.94;5132128;27;20858;-80